createdAt,value
2018-05-06T00:00:35.341Z,57.71
2018-05-06T00:01:35.346Z,58.38
2018-05-06T00:02:35.346Z,58.38
2018-05-06T00:03:35.348Z,58.19
2018-05-06T00:04:35.350Z,58.48
2018-05-06T00:05:35.353Z,58.58
2018-05-06T00:06:35.355Z,58.48
2018-05-06T00:07:35.356Z,58.58
2018-05-06T00:08:35.359Z,58.00
2018-05-06T00:09:35.360Z,58.58
2018-05-06T00:10:35.363Z,57.81
2018-05-06T00:11:35.365Z,58.10
2018-05-06T00:12:35.369Z,58.00
2018-05-06T00:13:35.372Z,58.00
2018-05-06T00:14:35.372Z,58.00
2018-05-06T00:15:35.373Z,58.19
2018-05-06T00:16:35.377Z,58.58
2018-05-06T00:17:35.379Z,58.58
2018-05-06T00:18:35.381Z,59.05
2018-05-06T00:19:35.383Z,58.76
2018-05-06T00:20:35.385Z,58.38
2018-05-06T00:21:35.386Z,58.95
2018-05-06T00:22:35.389Z,58.58
2018-05-06T00:23:35.391Z,58.58
2018-05-06T00:24:35.393Z,59.15
2018-05-06T00:25:35.395Z,59.63
2018-05-06T00:26:35.398Z,59.15
2018-05-06T00:27:35.398Z,59.53
2018-05-06T00:28:35.400Z,59.44
2018-05-06T00:29:35.402Z,59.24
2018-05-06T00:30:35.406Z,59.44
2018-05-06T00:31:35.406Z,59.81
2018-05-06T00:32:35.410Z,59.34
2018-05-06T00:33:35.445Z,59.05
2018-05-06T00:34:35.416Z,59.34
2018-05-06T00:35:35.414Z,59.24
2018-05-06T00:36:35.416Z,59.53
2018-05-06T00:37:35.419Z,59.53
2018-05-06T00:38:35.420Z,59.24
2018-05-06T00:39:35.421Z,59.34
2018-05-06T00:40:35.425Z,59.34
2018-05-06T00:41:35.426Z,59.15
2018-05-06T00:42:35.428Z,59.72
2018-05-06T00:43:35.427Z,59.81
2018-05-06T00:44:35.430Z,60.01
2018-05-06T00:45:35.433Z,60.07
2018-05-06T00:46:35.436Z,60.07
2018-05-06T00:47:35.436Z,60.30
2018-05-06T00:48:35.440Z,60.20
2018-05-06T00:49:35.440Z,59.78
2018-05-06T00:50:35.443Z,59.81
2018-05-06T00:51:35.446Z,60.30
2018-05-06T00:52:35.446Z,60.30
2018-05-06T00:53:35.453Z,60.20
2018-05-06T00:54:35.450Z,60.27
2018-05-06T00:55:35.451Z,60.58
2018-05-06T00:56:35.453Z,59.81
2018-05-06T00:57:35.454Z,60.20
2018-05-06T00:58:35.457Z,59.91
2018-05-06T00:59:35.456Z,59.81
2018-05-06T01:00:35.461Z,59.91
2018-05-06T01:01:35.464Z,60.01
2018-05-06T01:02:35.464Z,60.64
2018-05-06T01:03:35.465Z,60.36
2018-05-06T01:04:35.467Z,59.91
2018-05-06T01:05:35.471Z,60.01
2018-05-06T01:06:35.471Z,59.91
2018-05-06T01:07:35.472Z,60.49
2018-05-06T01:08:35.474Z,60.30
2018-05-06T01:09:35.475Z,60.68
2018-05-06T01:10:35.478Z,60.55
2018-05-06T01:11:35.479Z,60.74
2018-05-06T01:12:35.482Z,61.03
2018-05-06T01:13:35.483Z,61.13
2018-05-06T01:14:35.486Z,60.64
2018-05-06T01:15:35.484Z,60.55
2018-05-06T01:16:35.487Z,60.64
2018-05-06T01:17:35.490Z,60.93
2018-05-06T01:18:35.492Z,60.93
2018-05-06T01:19:35.492Z,61.03
2018-05-06T01:20:35.494Z,60.93
2018-05-06T01:21:35.495Z,60.84
2018-05-06T01:22:35.499Z,60.84
2018-05-06T01:23:35.499Z,60.55
2018-05-06T01:24:35.502Z,60.46
2018-05-06T01:25:35.504Z,60.17
2018-05-06T01:26:35.506Z,60.64
2018-05-06T01:27:35.506Z,60.64
2018-05-06T01:28:35.507Z,60.27
2018-05-06T01:29:35.509Z,60.36
2018-05-06T01:30:35.511Z,60.64
2018-05-06T01:31:35.511Z,60.17
2018-05-06T01:32:35.514Z,60.46
2018-05-06T01:33:35.515Z,60.17
2018-05-06T01:34:35.517Z,60.55
2018-05-06T01:35:35.518Z,60.17
2018-05-06T01:36:35.520Z,60.55
2018-05-06T01:37:35.521Z,60.84
2018-05-06T01:38:35.524Z,60.46
2018-05-06T01:39:35.524Z,60.07
2018-05-06T01:40:35.526Z,60.93
2018-05-06T01:41:35.529Z,59.98
2018-05-06T01:42:35.530Z,59.69
2018-05-06T01:43:35.532Z,59.78
2018-05-06T01:44:35.532Z,59.78
2018-05-06T01:45:35.534Z,60.17
2018-05-06T01:46:35.535Z,60.07
2018-05-06T01:47:35.542Z,60.07
2018-05-06T01:48:35.538Z,59.50
2018-05-06T01:49:35.540Z,59.78
2018-05-06T01:50:35.541Z,59.98
2018-05-06T01:51:35.543Z,60.17
2018-05-06T01:52:35.544Z,60.07
2018-05-06T01:53:35.548Z,60.36
2018-05-06T01:54:35.548Z,60.07
2018-05-06T01:55:35.549Z,59.98
2018-05-06T01:56:35.550Z,60.07
2018-05-06T01:57:35.552Z,59.98
2018-05-06T01:58:35.554Z,59.78
2018-05-06T01:59:35.555Z,60.07
2018-05-06T02:00:35.556Z,59.69
2018-05-06T02:01:35.557Z,60.46
2018-05-06T02:02:35.562Z,59.88
2018-05-06T02:03:35.560Z,59.41
2018-05-06T02:04:35.562Z,59.22
2018-05-06T02:05:35.564Z,59.22
2018-05-06T02:06:35.565Z,59.31
2018-05-06T02:07:35.566Z,58.83
2018-05-06T02:08:35.569Z,58.45
2018-05-06T02:09:35.575Z,58.36
2018-05-06T02:10:35.570Z,57.97
2018-05-06T02:11:35.571Z,58.07
2018-05-06T02:12:35.574Z,57.59
2018-05-06T02:13:35.575Z,56.92
2018-05-06T02:14:35.577Z,56.54
2018-05-06T02:15:35.581Z,56.92
2018-05-06T02:16:35.579Z,56.63
2018-05-06T02:17:35.580Z,56.45
2018-05-06T02:18:35.582Z,56.25
2018-05-06T02:19:35.582Z,56.35
2018-05-06T02:20:35.589Z,56.25
2018-05-06T02:21:35.586Z,56.25
2018-05-06T02:22:35.588Z,56.45
2018-05-06T02:23:35.593Z,56.16
2018-05-06T02:24:35.589Z,56.16
2018-05-06T02:25:35.591Z,55.49
2018-05-06T02:26:35.593Z,55.58
2018-05-06T02:27:35.595Z,55.11
2018-05-06T02:28:35.595Z,55.61
2018-05-06T02:29:35.596Z,55.13
2018-05-06T02:30:35.599Z,55.11
2018-05-06T02:31:35.599Z,55.30
2018-05-06T02:32:35.600Z,55.30
2018-05-06T02:33:35.602Z,54.82
2018-05-06T02:34:35.608Z,54.72
2018-05-06T02:35:35.604Z,55.11
2018-05-06T02:36:35.608Z,54.91
2018-05-06T02:37:35.608Z,54.91
2018-05-06T02:38:35.609Z,54.82
2018-05-06T02:39:35.609Z,55.01
2018-05-06T02:40:35.611Z,54.91
2018-05-06T02:41:35.611Z,55.11
2018-05-06T02:42:35.614Z,54.63
2018-05-06T02:43:35.614Z,54.15
2018-05-06T02:44:35.617Z,53.96
2018-05-06T02:45:35.617Z,54.34
2018-05-06T02:46:35.618Z,54.44
2018-05-06T02:47:35.617Z,53.86
2018-05-06T02:48:35.621Z,53.61
2018-05-06T02:49:35.622Z,54.18
2018-05-06T02:50:35.624Z,53.96
2018-05-06T02:51:35.623Z,54.08
2018-05-06T02:52:35.630Z,53.86
2018-05-06T02:53:35.627Z,54.53
2018-05-06T02:54:35.632Z,54.25
2018-05-06T02:55:35.629Z,54.25
2018-05-06T02:56:35.634Z,54.06
2018-05-06T02:57:35.632Z,54.34
2018-05-06T02:58:35.636Z,54.25
2018-05-06T02:59:35.635Z,54.82
2018-05-06T03:00:35.635Z,55.01
2018-05-06T03:01:35.638Z,55.01
2018-05-06T03:02:35.638Z,54.91
2018-05-06T03:03:35.639Z,55.58
2018-05-06T03:04:35.640Z,55.77
2018-05-06T03:05:35.642Z,55.40
2018-05-06T03:06:35.643Z,56.13
2018-05-06T03:07:35.644Z,56.25
2018-05-06T03:08:35.645Z,56.23
2018-05-06T03:09:35.647Z,56.23
2018-05-06T03:10:35.648Z,56.51
2018-05-06T03:11:35.648Z,56.41
2018-05-06T03:12:35.649Z,56.89
2018-05-06T03:13:35.651Z,57.28
2018-05-06T03:14:35.654Z,57.37
2018-05-06T03:15:35.652Z,57.85
2018-05-06T03:16:35.654Z,57.28
2018-05-06T03:17:35.655Z,57.09
2018-05-06T03:18:35.658Z,57.65
2018-05-06T03:19:35.657Z,57.37
2018-05-06T03:20:35.659Z,57.37
2018-05-06T03:21:35.660Z,57.37
2018-05-06T03:22:35.661Z,57.09
2018-05-06T03:23:35.661Z,57.43
2018-05-06T03:24:35.664Z,57.56
2018-05-06T03:25:35.664Z,58.11
2018-05-06T03:26:35.665Z,58.42
2018-05-06T03:27:35.665Z,58.77
2018-05-06T03:28:35.666Z,58.42
2018-05-06T03:29:35.668Z,58.68
2018-05-06T03:30:35.671Z,58.58
2018-05-06T03:31:35.669Z,58.39
2018-05-06T03:32:35.671Z,58.42
2018-05-06T03:33:35.672Z,58.14
2018-05-06T03:34:35.675Z,57.46
2018-05-06T03:35:35.674Z,57.85
2018-05-06T03:36:35.675Z,58.51
2018-05-06T03:37:35.676Z,58.29
2018-05-06T03:38:35.680Z,59.16
2018-05-06T03:39:35.677Z,58.48
2018-05-06T03:40:35.678Z,58.39
2018-05-06T03:41:35.682Z,58.11
2018-05-06T03:42:35.681Z,58.58
2018-05-06T03:43:35.683Z,58.39
2018-05-06T03:44:35.682Z,58.97
2018-05-06T03:45:35.682Z,58.87
2018-05-06T03:46:35.682Z,58.29
2018-05-06T03:47:35.684Z,58.77
2018-05-06T03:48:35.685Z,59.34
2018-05-06T03:49:35.689Z,59.06
2018-05-06T03:50:35.686Z,59.63
2018-05-06T03:51:35.686Z,59.73
2018-05-06T03:52:35.688Z,60.21
2018-05-06T03:53:35.689Z,60.39
2018-05-06T03:54:35.691Z,60.58
2018-05-06T03:55:35.748Z,60.49
2018-05-06T03:56:35.691Z,60.30
2018-05-06T03:57:35.691Z,60.78
2018-05-06T03:58:35.693Z,60.87
2018-05-06T03:59:35.692Z,60.87
2018-05-06T04:00:35.693Z,60.87
2018-05-06T04:01:35.695Z,60.49
2018-05-06T04:02:35.694Z,60.39
2018-05-06T04:03:35.695Z,60.58
2018-05-06T04:04:35.696Z,60.68
2018-05-06T04:05:35.699Z,60.78
2018-05-06T04:06:35.698Z,60.78
2018-05-06T04:07:35.697Z,60.78
2018-05-06T04:08:35.699Z,60.84
2018-05-06T04:09:35.699Z,61.16
2018-05-06T04:10:35.700Z,60.65
2018-05-06T04:11:35.700Z,61.51
2018-05-06T04:12:35.769Z,60.87
2018-05-06T04:13:35.706Z,60.84
2018-05-06T04:14:35.702Z,61.32
2018-05-06T04:15:35.702Z,61.35
2018-05-06T04:16:35.703Z,61.32
2018-05-06T04:17:35.703Z,61.60
2018-05-06T04:18:35.704Z,61.32
2018-05-06T04:19:35.704Z,61.32
2018-05-06T04:20:35.706Z,61.80
2018-05-06T04:21:35.707Z,62.18
2018-05-06T04:22:35.707Z,62.18
2018-05-06T04:23:35.706Z,61.70
2018-05-06T04:24:35.711Z,61.99
2018-05-06T04:25:35.711Z,62.65
2018-05-06T04:26:35.709Z,62.94
2018-05-06T04:27:35.710Z,62.84
2018-05-06T04:28:35.709Z,62.46
2018-05-06T04:29:35.709Z,62.94
2018-05-06T04:30:35.710Z,62.94
2018-05-06T04:31:35.709Z,62.94
2018-05-06T04:32:35.711Z,62.65
2018-05-06T04:33:35.710Z,63.70
2018-05-06T04:34:35.713Z,63.13
2018-05-06T04:35:35.714Z,63.80
2018-05-06T04:36:35.713Z,63.80
2018-05-06T04:37:35.713Z,63.60
2018-05-06T04:38:35.716Z,63.60
2018-05-06T04:39:35.717Z,63.70
2018-05-06T04:40:35.719Z,63.89
2018-05-06T04:41:35.715Z,64.37
2018-05-06T04:42:35.721Z,63.99
2018-05-06T04:43:35.715Z,64.47
2018-05-06T04:44:35.715Z,64.18
2018-05-06T04:45:35.716Z,64.56
2018-05-06T04:46:35.718Z,64.56
2018-05-06T04:47:35.716Z,64.47
2018-05-06T04:48:35.719Z,64.94
2018-05-06T04:49:35.717Z,65.04
2018-05-06T04:50:35.720Z,65.42
2018-05-06T04:51:35.718Z,65.61
2018-05-06T04:52:35.719Z,65.61
2018-05-06T04:53:35.720Z,65.52
2018-05-06T04:54:35.719Z,65.13
2018-05-06T04:55:35.721Z,65.80
2018-05-06T04:56:35.720Z,65.42
2018-05-06T04:57:35.726Z,65.80
2018-05-06T04:58:35.723Z,65.23
2018-05-06T04:59:35.720Z,65.89
2018-05-06T05:00:35.723Z,65.80
2018-05-06T05:01:35.721Z,65.89
2018-05-06T05:02:35.723Z,65.70
2018-05-06T05:03:35.722Z,65.52
2018-05-06T05:04:35.723Z,65.52
2018-05-06T05:05:35.737Z,66.38
2018-05-06T05:06:35.727Z,65.89
2018-05-06T05:07:35.724Z,65.61
2018-05-06T05:08:35.724Z,65.33
2018-05-06T05:09:35.731Z,65.45
2018-05-06T05:10:35.725Z,65.80
2018-05-06T05:11:35.726Z,65.64
2018-05-06T05:12:35.726Z,65.93
2018-05-06T05:13:35.726Z,65.74
2018-05-06T05:14:35.725Z,65.26
2018-05-06T05:15:35.727Z,65.17
2018-05-06T05:16:35.725Z,65.26
2018-05-06T05:17:35.727Z,65.74
2018-05-06T05:18:35.727Z,65.45
2018-05-06T05:19:35.728Z,65.07
2018-05-06T05:20:35.728Z,65.36
2018-05-06T05:21:35.728Z,64.97
2018-05-06T05:22:35.730Z,64.97
2018-05-06T05:23:35.729Z,64.97
2018-05-06T05:24:35.731Z,64.69
2018-05-06T05:25:35.729Z,64.97
2018-05-06T05:26:35.735Z,64.34
2018-05-06T05:27:35.733Z,64.72
2018-05-06T05:28:35.732Z,64.91
2018-05-06T05:29:35.732Z,64.72
2018-05-06T05:30:35.733Z,65.10
2018-05-06T05:31:35.733Z,64.05
2018-05-06T05:32:35.733Z,63.67
2018-05-06T05:33:35.738Z,63.39
2018-05-06T05:34:35.735Z,63.96
2018-05-06T05:35:35.735Z,63.76
2018-05-06T05:36:35.737Z,64.15
2018-05-06T05:37:35.735Z,63.67
2018-05-06T05:38:35.739Z,63.76
2018-05-06T05:39:35.737Z,63.76
2018-05-06T05:40:35.738Z,64.72
2018-05-06T05:41:35.740Z,63.76
2018-05-06T05:42:35.740Z,63.20
2018-05-06T05:43:35.740Z,63.23
2018-05-06T05:44:35.740Z,63.23
2018-05-06T05:45:35.742Z,62.75
2018-05-06T05:46:35.745Z,62.65
2018-05-06T05:47:35.749Z,62.46
2018-05-06T05:48:35.745Z,62.27
2018-05-06T05:49:35.745Z,61.98
2018-05-06T05:50:35.746Z,61.79
2018-05-06T05:51:35.748Z,61.79
2018-05-06T05:52:35.751Z,61.60
2018-05-06T05:53:35.749Z,61.79
2018-05-06T05:54:35.750Z,61.60
2018-05-06T05:55:35.771Z,61.79
2018-05-06T05:56:35.754Z,61.82
2018-05-06T05:57:35.754Z,61.25
2018-05-06T05:58:35.755Z,60.96
2018-05-06T05:59:35.755Z,61.44
2018-05-06T06:00:35.760Z,60.68
2018-05-06T06:01:35.872Z,61.06
2018-05-06T06:02:35.759Z,61.06
2018-05-06T06:03:35.760Z,61.54
2018-05-06T06:04:35.760Z,61.63
2018-05-06T06:05:35.762Z,61.35
2018-05-06T06:06:35.771Z,61.06
2018-05-06T06:07:35.767Z,61.82
2018-05-06T06:08:35.765Z,61.47
2018-05-06T06:09:35.767Z,60.71
2018-05-06T06:10:35.768Z,60.80
2018-05-06T06:11:35.771Z,61.28
2018-05-06T06:12:35.770Z,61.19
2018-05-06T06:13:35.773Z,61.57
2018-05-06T06:14:35.774Z,61.28
2018-05-06T06:15:35.777Z,60.90
2018-05-06T06:16:35.777Z,60.90
2018-05-06T06:17:35.778Z,60.80
2018-05-06T06:18:35.780Z,61.19
2018-05-06T06:19:35.784Z,60.61
2018-05-06T06:20:35.782Z,60.33
2018-05-06T06:21:35.785Z,60.33
2018-05-06T06:22:35.786Z,59.94
2018-05-06T06:23:35.786Z,60.13
2018-05-06T06:24:35.794Z,59.84
2018-05-06T06:25:35.789Z,60.06
2018-05-06T06:26:35.792Z,60.26
2018-05-06T06:27:35.792Z,60.35
2018-05-06T06:28:35.795Z,59.40
2018-05-06T06:29:35.797Z,59.20
2018-05-06T06:30:35.799Z,59.78
2018-05-06T06:31:35.799Z,59.40
2018-05-06T06:32:35.804Z,59.30
2018-05-06T06:33:35.804Z,59.59
2018-05-06T06:34:35.808Z,59.88
2018-05-06T06:35:35.808Z,59.40
2018-05-06T06:36:35.810Z,60.35
2018-05-06T06:37:35.811Z,59.88
2018-05-06T06:38:35.815Z,60.45
2018-05-06T06:39:35.815Z,59.91
2018-05-06T06:40:35.817Z,59.43
2018-05-06T06:41:35.819Z,59.43
2018-05-06T06:42:35.822Z,59.33
2018-05-06T06:43:35.824Z,58.76
2018-05-06T06:44:35.827Z,58.66
2018-05-06T06:45:35.827Z,59.23
2018-05-06T06:46:35.830Z,58.86
2018-05-06T06:47:35.832Z,58.66
2018-05-06T06:48:35.847Z,58.66
2018-05-06T06:49:35.836Z,58.28
2018-05-06T06:50:35.839Z,58.59
2018-05-06T06:51:35.840Z,59.08
2018-05-06T06:52:35.842Z,58.98
2018-05-06T06:53:35.845Z,58.40
2018-05-06T06:54:35.847Z,58.40
2018-05-06T06:55:35.849Z,58.59
2018-05-06T06:56:35.851Z,57.45
2018-05-06T06:57:35.855Z,57.45
2018-05-06T06:58:35.856Z,58.69
2018-05-06T06:59:35.865Z,57.54
2018-05-06T07:00:35.861Z,57.83
2018-05-06T07:01:35.863Z,58.02
2018-05-06T07:02:35.866Z,58.50
2018-05-06T07:03:35.868Z,57.92
2018-05-06T07:04:35.871Z,57.35
2018-05-06T07:05:35.873Z,57.67
2018-05-06T07:06:35.877Z,57.86
2018-05-06T07:07:35.879Z,58.62
2018-05-06T07:08:35.881Z,57.28
2018-05-06T07:09:35.886Z,57.57
2018-05-06T07:10:35.887Z,57.19
2018-05-06T07:11:35.888Z,57.38
2018-05-06T07:12:35.895Z,56.90
2018-05-06T07:13:35.900Z,56.90
2018-05-06T07:14:35.896Z,57.09
2018-05-06T07:15:35.899Z,56.52
2018-05-06T07:16:35.903Z,56.32
2018-05-06T07:17:35.908Z,56.42
2018-05-06T07:18:35.909Z,57.28
2018-05-06T07:19:35.912Z,57.28
2018-05-06T07:20:35.914Z,56.42
2018-05-06T07:21:35.917Z,56.35
2018-05-06T07:22:35.921Z,56.74
2018-05-06T07:23:35.923Z,56.54
2018-05-06T07:24:35.925Z,56.35
2018-05-06T07:25:35.930Z,56.54
2018-05-06T07:26:35.932Z,56.45
2018-05-06T07:27:35.934Z,56.35
2018-05-06T07:28:35.938Z,56.64
2018-05-06T07:29:35.941Z,56.83
2018-05-06T07:30:35.946Z,56.64
2018-05-06T07:31:35.947Z,56.29
2018-05-06T07:32:35.951Z,55.80
2018-05-06T07:33:35.955Z,55.58
2018-05-06T07:34:35.958Z,56.48
2018-05-06T07:35:35.961Z,55.71
2018-05-06T07:36:35.964Z,55.52
2018-05-06T07:37:35.970Z,55.23
2018-05-06T07:38:35.971Z,55.13
2018-05-06T07:39:35.974Z,54.37
2018-05-06T07:40:35.978Z,53.99
2018-05-06T07:41:35.991Z,53.12
2018-05-06T07:42:35.987Z,53.44
2018-05-06T07:43:35.988Z,52.86
2018-05-06T07:44:35.991Z,52.48
2018-05-06T07:45:35.998Z,52.57
2018-05-06T07:46:35.999Z,53.44
2018-05-06T07:47:36.003Z,53.53
2018-05-06T07:48:36.008Z,53.53
2018-05-06T07:49:36.014Z,53.63
2018-05-06T07:50:36.014Z,52.60
2018-05-06T07:51:36.019Z,52.60
2018-05-06T07:52:36.022Z,53.56
2018-05-06T07:53:36.026Z,52.53
2018-05-06T07:54:36.031Z,52.46
2018-05-06T07:55:36.034Z,51.23
2018-05-06T07:56:36.039Z,49.53
2018-05-06T07:57:36.046Z,47.17
2018-05-06T07:58:36.052Z,44.93
2018-05-06T07:59:36.057Z,42.36
2018-05-06T08:00:36.065Z,40.17
2018-05-06T08:01:36.073Z,39.51
2018-05-06T08:02:36.084Z,38.95
2018-05-06T08:03:36.096Z,39.69
2018-05-06T08:04:36.100Z,39.34
2018-05-06T08:05:36.115Z,37.73
2018-05-06T08:06:36.124Z,37.19
2018-05-06T08:07:36.133Z,37.32
2018-05-06T08:08:36.145Z,37.36
2018-05-06T08:09:36.158Z,37.23
2018-05-06T08:10:36.171Z,37.52
2018-05-06T08:11:36.182Z,36.65
2018-05-06T08:12:36.197Z,37.04
2018-05-06T08:13:36.211Z,38.18
2018-05-06T08:14:36.223Z,39.04
2018-05-06T08:15:36.237Z,39.34
2018-05-06T08:16:36.280Z,37.82
2018-05-06T08:17:36.268Z,36.68
2018-05-06T08:18:36.283Z,36.58
2018-05-06T08:19:36.298Z,36.30
2018-05-06T08:20:36.313Z,35.64
2018-05-06T08:21:36.332Z,34.89
2018-05-06T08:22:36.347Z,34.43
2018-05-06T08:23:36.396Z,33.34
2018-05-06T08:24:36.379Z,33.92
2018-05-06T08:25:36.398Z,33.28
2018-05-06T08:26:36.414Z,32.70
2018-05-06T08:27:36.431Z,32.86
2018-05-06T08:28:36.452Z,33.25
2018-05-06T08:29:36.473Z,33.62
2018-05-06T08:30:36.486Z,34.97
2018-05-06T08:31:36.503Z,34.31
2018-05-06T08:32:36.521Z,34.23
2018-05-06T08:33:36.542Z,33.11
2018-05-06T08:34:36.559Z,32.21
2018-05-06T08:35:36.578Z,32.50
2018-05-06T08:36:36.597Z,32.76
2018-05-06T08:37:36.640Z,32.76
2018-05-06T08:38:36.636Z,32.68
2018-05-06T08:39:36.655Z,33.14
2018-05-06T08:40:36.676Z,33.60
2018-05-06T08:41:36.693Z,34.11
2018-05-06T08:42:36.715Z,33.62
2018-05-06T08:43:36.733Z,33.94
2018-05-06T08:44:36.752Z,33.36
2018-05-06T08:45:36.773Z,33.52
2018-05-06T08:46:36.793Z,33.59
2018-05-06T08:47:36.812Z,35.23
2018-05-06T08:48:36.836Z,35.46
2018-05-06T08:49:36.853Z,34.96
2018-05-06T08:50:36.872Z,34.81
2018-05-06T08:51:36.892Z,33.28
2018-05-06T08:52:36.911Z,33.15
2018-05-06T08:53:36.933Z,34.78
2018-05-06T08:54:36.956Z,35.01
2018-05-06T08:55:36.975Z,34.16
2018-05-06T08:56:36.992Z,33.41
2018-05-06T08:57:37.013Z,32.23
2018-05-06T08:58:37.034Z,32.20
2018-05-06T08:59:37.078Z,32.82
2018-05-06T09:00:37.073Z,32.05
2018-05-06T09:01:37.093Z,31.97
2018-05-06T09:02:37.114Z,32.23
2018-05-06T09:03:37.138Z,31.94
2018-05-06T09:04:37.153Z,31.85
2018-05-06T09:05:37.178Z,31.97
2018-05-06T09:06:37.192Z,31.60
2018-05-06T09:07:37.211Z,31.70
2018-05-06T09:08:37.230Z,31.68
2018-05-06T09:09:37.251Z,31.77
2018-05-06T09:10:37.270Z,31.68
2018-05-06T09:11:37.289Z,31.61
2018-05-06T09:12:37.303Z,31.11
2018-05-06T09:13:37.321Z,31.10
2018-05-06T09:14:37.340Z,31.38
2018-05-06T09:15:37.358Z,31.10
2018-05-06T09:16:37.375Z,31.48
2018-05-06T09:17:37.394Z,31.58
2018-05-06T09:18:37.416Z,31.01
2018-05-06T09:19:37.479Z,30.17
2018-05-06T09:20:37.449Z,30.26
2018-05-06T09:21:37.466Z,30.83
2018-05-06T09:22:37.485Z,29.88
2018-05-06T09:23:37.502Z,29.29
2018-05-06T09:24:37.520Z,30.97
2018-05-06T09:25:37.548Z,32.62
2018-05-06T09:26:37.557Z,31.88
2018-05-06T09:27:37.574Z,30.90
2018-05-06T09:28:37.592Z,32.15
2018-05-06T09:29:37.611Z,31.66
2018-05-06T09:30:37.628Z,31.95
2018-05-06T09:31:37.647Z,31.60
2018-05-06T09:32:37.664Z,31.30
2018-05-06T09:33:37.683Z,30.30
2018-05-06T09:34:37.700Z,30.87
2018-05-06T09:35:37.718Z,29.74
2018-05-06T09:36:37.736Z,29.85
2018-05-06T09:37:37.827Z,30.91
2018-05-06T09:38:37.772Z,29.78
2018-05-06T09:39:37.788Z,28.90
2018-05-06T09:40:37.807Z,29.38
2018-05-06T09:41:37.824Z,28.70
2018-05-06T09:42:37.843Z,30.02
2018-05-06T09:43:37.859Z,29.55
2018-05-06T09:44:37.879Z,29.46
2018-05-06T09:45:37.896Z,28.49
2018-05-06T09:46:37.916Z,29.08
2018-05-06T09:47:37.948Z,29.65
2018-05-06T09:48:37.949Z,31.58
2018-05-06T09:49:37.967Z,31.58
2018-05-06T09:50:37.984Z,31.41
2018-05-06T09:51:38.002Z,29.11
2018-05-06T09:52:38.020Z,28.59
2018-05-06T09:53:38.038Z,28.58
2018-05-06T09:54:38.056Z,29.16
2018-05-06T09:55:38.072Z,29.15
2018-05-06T09:56:38.090Z,29.19
2018-05-06T09:57:38.107Z,31.44
2018-05-06T09:58:38.125Z,31.55
2018-05-06T09:59:38.141Z,31.16
2018-05-06T10:00:38.159Z,30.58
2018-05-06T10:01:38.176Z,30.16
2018-05-06T10:02:38.194Z,30.27
2018-05-06T10:03:38.211Z,29.91
2018-05-06T10:04:38.229Z,28.96
2018-05-06T10:05:38.247Z,30.02
2018-05-06T10:06:38.269Z,29.78
2018-05-06T10:07:38.277Z,28.72
2018-05-06T10:08:38.296Z,28.82
2018-05-06T10:09:38.313Z,28.34
2018-05-06T10:10:38.333Z,28.43
2018-05-06T10:11:38.348Z,28.33
2018-05-06T10:12:38.363Z,27.56
2018-05-06T10:13:38.385Z,28.14
2018-05-06T10:14:38.398Z,27.65
2018-05-06T10:15:38.414Z,27.86
2018-05-06T10:16:38.432Z,27.45
2018-05-06T10:17:38.448Z,27.62
2018-05-06T10:18:38.465Z,29.44
2018-05-06T10:19:38.482Z,28.79
2018-05-06T10:20:38.498Z,28.22
2018-05-06T10:21:38.517Z,29.00
2018-05-06T10:22:38.532Z,29.88
2018-05-06T10:23:38.550Z,29.78
2018-05-06T10:24:38.570Z,30.17
2018-05-06T10:25:38.583Z,30.32
2018-05-06T10:26:38.601Z,30.24
2018-05-06T10:27:38.617Z,29.74
2018-05-06T10:28:38.633Z,30.62
2018-05-06T10:29:38.650Z,29.39
2018-05-06T10:30:38.666Z,30.65
2018-05-06T10:31:38.683Z,28.90
2018-05-06T10:32:38.700Z,29.49
2018-05-06T10:33:38.716Z,29.78
2018-05-06T10:34:38.734Z,30.46
2018-05-06T10:35:38.751Z,29.58
2018-05-06T10:36:38.767Z,29.36
2018-05-06T10:37:38.783Z,30.43
2018-05-06T10:38:38.800Z,31.32
2018-05-06T10:39:38.816Z,31.30
2018-05-06T10:40:38.832Z,31.66
2018-05-06T10:41:38.848Z,31.84
2018-05-06T10:42:38.866Z,31.27
2018-05-06T10:43:38.882Z,32.39
2018-05-06T10:44:38.898Z,32.89
2018-05-06T10:45:38.915Z,31.76
2018-05-06T10:46:38.931Z,31.76
2018-05-06T10:47:38.947Z,31.98
2018-05-06T10:48:38.964Z,31.03
2018-05-06T10:49:38.979Z,30.12
2018-05-06T10:50:38.993Z,32.15
2018-05-06T10:51:39.011Z,32.84
2018-05-06T10:52:39.026Z,32.18
2018-05-06T10:53:39.044Z,31.29
2018-05-06T10:54:39.060Z,31.66
2018-05-06T10:55:39.074Z,32.60
2018-05-06T10:56:39.089Z,34.06
2018-05-06T10:57:39.105Z,33.36
2018-05-06T10:58:39.122Z,34.53
2018-05-06T10:59:39.136Z,33.75
2018-05-06T11:00:39.156Z,33.94
2018-05-06T11:01:39.168Z,33.49
2018-05-06T11:02:39.186Z,32.23
2018-05-06T11:03:39.198Z,33.09
2018-05-06T11:04:39.214Z,32.52
2018-05-06T11:05:39.229Z,32.04
2018-05-06T11:06:39.243Z,32.50
2018-05-06T11:07:39.258Z,32.89
2018-05-06T11:08:39.273Z,34.41
2018-05-06T11:09:39.288Z,33.64
2018-05-06T11:10:39.303Z,33.52
2018-05-06T11:11:39.316Z,35.05
2018-05-06T11:12:39.331Z,35.73
2018-05-06T11:13:39.346Z,35.54
2018-05-06T11:14:39.360Z,36.12
2018-05-06T11:15:39.372Z,36.33
2018-05-06T11:16:39.387Z,37.09
2018-05-06T11:17:39.400Z,36.24
2018-05-06T11:18:39.414Z,34.78
2018-05-06T11:19:39.427Z,35.17
2018-05-06T11:20:39.440Z,36.32
2018-05-06T11:21:39.454Z,36.02
2018-05-06T11:22:39.467Z,36.70
2018-05-06T11:23:39.479Z,35.81
2018-05-06T11:24:39.491Z,35.33
2018-05-06T11:25:39.504Z,35.23
2018-05-06T11:26:39.515Z,35.54
2018-05-06T11:27:39.528Z,35.83
2018-05-06T11:28:39.541Z,36.51
2018-05-06T11:29:39.554Z,36.14
2018-05-06T11:30:39.566Z,35.15
2018-05-06T11:31:39.578Z,35.91
2018-05-06T11:32:39.590Z,36.57
2018-05-06T11:33:39.636Z,36.58
2018-05-06T11:34:39.614Z,36.78
2018-05-06T11:35:39.625Z,36.40
2018-05-06T11:36:39.636Z,36.00
2018-05-06T11:37:39.648Z,37.73
2018-05-06T11:38:39.660Z,37.73
2018-05-06T11:39:39.670Z,38.41
2018-05-06T11:40:39.682Z,37.15
2018-05-06T11:41:39.694Z,36.08
2018-05-06T11:42:39.706Z,35.50
2018-05-06T11:43:39.716Z,36.08
2018-05-06T11:44:39.728Z,35.89
2018-05-06T11:45:39.738Z,36.96
2018-05-06T11:46:39.750Z,36.38
2018-05-06T11:47:39.760Z,37.44
2018-05-06T11:48:39.772Z,37.34
2018-05-06T11:49:39.783Z,39.37
2018-05-06T11:50:39.793Z,38.02
2018-05-06T11:51:39.804Z,38.00
2018-05-06T11:52:39.831Z,38.31
2018-05-06T11:53:39.826Z,37.92
2018-05-06T11:54:39.838Z,38.31
2018-05-06T11:55:39.847Z,38.50
2018-05-06T11:56:39.858Z,38.79
2018-05-06T11:57:39.872Z,38.89
2018-05-06T11:58:39.879Z,38.60
2018-05-06T11:59:39.889Z,38.43
2018-05-06T12:00:39.899Z,38.13
2018-05-06T12:01:39.911Z,38.12
2018-05-06T12:02:39.926Z,36.58
2018-05-06T12:03:39.932Z,36.49
2018-05-06T12:04:39.942Z,36.57
2018-05-06T12:05:39.954Z,36.18
2018-05-06T12:06:39.964Z,37.63
2018-05-06T12:07:39.980Z,37.55
2018-05-06T12:08:39.984Z,37.75
2018-05-06T12:09:39.995Z,36.30
2018-05-06T12:10:40.007Z,36.96
2018-05-06T12:11:40.016Z,38.12
2018-05-06T12:12:40.027Z,38.02
2018-05-06T12:13:40.038Z,37.24
2018-05-06T12:14:40.049Z,37.73
2018-05-06T12:15:40.059Z,37.15
2018-05-06T12:16:40.069Z,38.13
2018-05-06T12:17:40.080Z,36.57
2018-05-06T12:18:40.091Z,36.78
2018-05-06T12:19:40.102Z,37.07
2018-05-06T12:20:40.111Z,37.94
2018-05-06T12:21:40.124Z,38.53
2018-05-06T12:22:40.132Z,37.48
2018-05-06T12:23:40.147Z,37.77
2018-05-06T12:24:40.154Z,37.96
2018-05-06T12:25:40.164Z,37.09
2018-05-06T12:26:40.175Z,36.60
2018-05-06T12:27:40.185Z,36.00
2018-05-06T12:28:40.199Z,36.58
2018-05-06T12:29:40.206Z,36.20
2018-05-06T12:30:40.217Z,35.72
2018-05-06T12:31:40.226Z,35.60
2018-05-06T12:32:40.237Z,36.10
2018-05-06T12:33:40.321Z,37.26
2018-05-06T12:34:40.259Z,36.68
2018-05-06T12:35:40.269Z,36.12
2018-05-06T12:36:40.278Z,36.12
2018-05-06T12:37:40.293Z,35.73
2018-05-06T12:38:40.304Z,35.83
2018-05-06T12:39:40.309Z,35.64
2018-05-06T12:40:40.321Z,36.02
2018-05-06T12:41:40.332Z,36.02
2018-05-06T12:42:40.342Z,35.54
2018-05-06T12:43:40.351Z,36.22
2018-05-06T12:44:40.367Z,35.83
2018-05-06T12:45:40.372Z,35.05
2018-05-06T12:46:40.383Z,35.25
2018-05-06T12:47:40.393Z,35.07
2018-05-06T12:48:40.403Z,35.66
2018-05-06T12:49:40.413Z,35.94
2018-05-06T12:50:40.426Z,35.07
2018-05-06T12:51:40.434Z,35.04
2018-05-06T12:52:40.444Z,35.64